Time;durP1;ratioP1;P1;durP2;ratioP2;P2;SDS_P1;SDS_P2;PMS_P1;PMS_P2;Temp;Humidity;BMP_temperature;BMP_pressure;BME280_temperature;BME280_humidity;BME280_pressure;Samples;Min_cycle;Max_cycle;Signal;HPM_P1;HPM_P2
2024/01/24 00:00:05;;;;;;;20.05;4.15;;;10.20;99.90;;;;;;4864963;29;20061;-76
2024/01/24 00:02:30;;;;;;;17.13;3.45;;;10.20;99.90;;;;;;4864951;29;20059;-76
2024/01/24 00:04:56;;;;;;;20.65;3.38;;;10.20;99.90;;;;;;4864902;29;20045;-76
2024/01/24 00:07:21;;;;;;;19.60;3.22;;;10.30;99.90;;;;;;4864937;29;20076;-76
2024/01/24 00:09:47;;;;;;;17.42;3.67;;;10.30;99.90;;;;;;4881386;29;20057;-76
2024/01/24 00:12:13;;;;;;;19.67;2.17;;;10.30;99.90;;;;;;4864859;29;20060;-76
2024/01/24 00:14:38;;;;;;;16.13;2.65;;;10.30;99.90;;;;;;4864648;29;20144;-76
2024/01/24 00:17:05;;;;;;;18.85;4.00;;;10.30;99.90;;;;;;4864667;29;20053;-76
2024/01/24 00:19:31;;;;;;;19.80;3.30;;;10.30;99.90;;;;;;4864771;29;20084;-76
2024/01/24 00:21:56;;;;;;;20.75;3.80;;;10.30;99.90;;;;;;4895986;29;20049;-76
2024/01/24 00:24:22;;;;;;;16.30;2.67;;;10.30;99.90;;;;;;4864703;29;20053;-76
2024/01/24 00:26:50;;;;;;;23.42;3.60;;;10.30;99.90;;;;;;4863810;29;20057;-76
2024/01/24 00:29:16;;;;;;;22.95;3.33;;;10.30;99.90;;;;;;4864336;29;20047;-76
2024/01/24 00:31:42;;;;;;;18.63;3.50;;;10.40;99.90;;;;;;4881244;29;20040;-76
2024/01/24 00:34:07;;;;;;;22.45;3.65;;;10.40;99.90;;;;;;4864701;29;20083;-76
2024/01/24 00:36:33;;;;;;;19.33;2.47;;;10.30;99.90;;;;;;4881136;29;20484;-76
2024/01/24 00:38:59;;;;;;;17.60;3.45;;;10.30;99.90;;;;;;4880963;29;20124;-76
2024/01/24 00:41:25;;;;;;;16.25;2.97;;;10.30;99.90;;;;;;4864177;29;20097;-76
2024/01/24 00:43:50;;;;;;;19.50;3.97;;;10.40;99.90;;;;;;4864182;29;20077;-76
2024/01/24 00:46:16;;;;;;;22.65;3.42;;;10.30;99.90;;;;;;4864162;29;20041;-76
2024/01/24 00:48:41;;;;;;;19.48;3.75;;;10.30;99.90;;;;;;4864213;29;20041;-76
2024/01/24 00:51:07;;;;;;;21.00;5.03;;;10.30;99.90;;;;;;4864166;29;20045;-76
2024/01/24 00:53:36;;;;;;;15.55;3.40;;;10.40;99.90;;;;;;4864400;29;20045;-76
2024/01/24 00:56:03;;;;;;;20.60;3.55;;;10.30;99.90;;;;;;4864078;29;20056;-76
2024/01/24 00:58:28;;;;;;;19.95;2.97;;;10.40;99.90;;;;;;4863797;29;20053;-76
2024/01/24 01:00:55;;;;;;;16.08;3.45;;;10.40;99.90;;;;;;4895116;29;20057;-76
2024/01/24 01:03:23;;;;;;;19.92;3.20;;;10.40;99.90;;;;;;4880641;29;20045;-76
2024/01/24 01:05:52;;;;;;;22.05;3.28;;;10.40;99.90;;;;;;4864176;29;20053;-76
2024/01/24 01:08:18;;;;;;;15.70;2.60;;;10.40;99.90;;;;;;4863892;29;20437;-76
2024/01/24 01:10:47;;;;;;;12.95;2.42;;;10.40;99.90;;;;;;4863529;29;20060;-76
2024/01/24 01:13:14;;;;;;;14.57;2.50;;;10.40;99.90;;;;;;4863683;29;20063;-76
2024/01/24 01:15:41;;;;;;;14.48;2.30;;;10.40;99.90;;;;;;4863927;29;20489;-76
2024/01/24 01:18:06;;;;;;;20.00;3.15;;;10.40;99.90;;;;;;4894978;29;20088;-76
2024/01/24 01:20:32;;;;;;;14.45;3.55;;;10.40;99.90;;;;;;4894712;29;20095;-76
2024/01/24 01:22:57;;;;;;;16.73;2.55;;;10.40;99.90;;;;;;4863626;29;20087;-76
2024/01/24 01:25:23;;;;;;;20.75;2.88;;;10.30;99.90;;;;;;4863494;29;20056;-77
2024/01/24 01:27:49;;;;;;;18.38;3.38;;;10.40;99.90;;;;;;4894537;29;20080;-77
2024/01/24 01:30:14;;;;;;;17.40;2.75;;;10.40;99.90;;;;;;4863446;29;20136;-77
2024/01/24 01:32:40;;;;;;;17.88;3.58;;;10.50;99.90;;;;;;4894469;29;20132;-77
2024/01/24 01:35:07;;;;;;;16.25;3.00;;;10.50;99.90;;;;;;4880160;29;20041;-77
2024/01/24 01:37:32;;;;;;;18.38;2.50;;;10.50;99.90;;;;;;4894757;29;20055;-77
2024/01/24 01:39:58;;;;;;;19.13;2.65;;;10.50;99.90;;;;;;4862943;29;20057;-77
2024/01/24 01:42:24;;;;;;;18.35;4.00;;;10.50;99.90;;;;;;4863510;29;20087;-76
2024/01/24 01:44:52;;;;;;;15.13;2.03;;;10.50;99.90;;;;;;4863109;29;20049;-77
2024/01/24 01:47:18;;;;;;;19.42;2.83;;;10.60;99.90;;;;;;4863308;29;20145;-76
2024/01/24 01:49:45;;;;;;;17.92;3.05;;;10.60;99.90;;;;;;4863552;29;20057;-76
2024/01/24 01:52:11;;;;;;;16.25;3.05;;;10.50;99.90;;;;;;4894269;29;20056;-76
2024/01/24 01:54:40;;;;;;;21.85;4.13;;;10.50;99.90;;;;;;4879810;29;20041;-76
2024/01/24 01:57:08;;;;;;;20.65;4.72;;;10.50;99.90;;;;;;4863112;29;20493;-76
2024/01/24 01:59:35;;;;;;;11.40;2.25;;;10.60;99.90;;;;;;4894091;29;20049;-76
2024/01/24 02:02:02;;;;;;;19.08;2.88;;;10.50;99.90;;;;;;4894218;29;20049;-76
2024/01/24 02:04:28;;;;;;;18.73;2.90;;;10.60;99.90;;;;;;4863191;29;20064;-76
2024/01/24 02:06:55;;;;;;;16.63;2.63;;;10.60;99.90;;;;;;4863181;29;20052;-76
2024/01/24 02:09:22;;;;;;;14.98;2.83;;;10.50;99.90;;;;;;4863112;29;20052;-76
2024/01/24 02:11:48;;;;;;;19.15;2.75;;;10.50;99.90;;;;;;4893959;29;20045;-76
2024/01/24 02:14:14;;;;;;;15.60;2.92;;;10.50;99.90;;;;;;4863150;29;20109;-76
2024/01/24 02:16:39;;;;;;;18.00;3.08;;;10.40;99.90;;;;;;4863045;29;20053;-76
2024/01/24 02:19:06;;;;;;;16.55;3.05;;;10.50;99.90;;;;;;4863007;29;20045;-76
2024/01/24 02:21:35;;;;;;;21.70;3.15;;;10.50;99.90;;;;;;4893885;29;20061;-76
2024/01/24 02:24:10;;;;;;;8.25;1.70;;;10.50;99.90;;;;;;4894213;29;20052;-76
2024/01/24 02:26:36;;;;;;;16.02;2.22;;;10.50;99.90;;;;;;4894043;29;20053;-76
2024/01/24 02:29:01;;;;;;;18.75;3.55;;;10.50;99.90;;;;;;4863229;29;20059;-76
2024/01/24 02:31:27;;;;;;;23.33;4.00;;;10.50;99.90;;;;;;4863186;29;20081;-76
2024/01/24 02:33:53;;;;;;;15.48;2.58;;;10.40;99.90;;;;;;4862818;29;20428;-76
2024/01/24 02:36:18;;;;;;;18.92;3.63;;;10.40;99.90;;;;;;4862774;29;20053;-76
2024/01/24 02:38:44;;;;;;;17.20;3.20;;;10.40;99.90;;;;;;4862970;29;20076;-76
2024/01/24 02:41:10;;;;;;;21.58;2.90;;;10.40;99.90;;;;;;4862795;29;20085;-76
2024/01/24 02:43:36;;;;;;;23.80;4.40;;;10.40;99.90;;;;;;4863096;29;20136;-76
2024/01/24 02:46:02;;;;;;;21.35;2.95;;;10.40;99.90;;;;;;4893915;29;20053;-76
2024/01/24 02:48:28;;;;;;;20.08;3.33;;;10.40;99.90;;;;;;4861699;29;20128;-76
2024/01/24 02:50:54;;;;;;;16.73;3.95;;;10.40;99.90;;;;;;4863968;29;20152;-76
2024/01/24 02:53:19;;;;;;;20.30;3.67;;;10.30;99.90;;;;;;4882963;29;20048;-76
2024/01/24 02:55:45;;;;;;;12.50;2.75;;;10.30;99.90;;;;;;4866233;29;20045;-76
2024/01/24 02:58:11;;;;;;;18.58;2.60;;;10.30;99.90;;;;;;4897442;29;20493;-76
2024/01/24 03:00:37;;;;;;;17.42;2.58;;;10.30;99.90;;;;;;4897106;29;20045;-76
2024/01/24 03:03:03;;;;;;;18.63;3.03;;;10.10;99.90;;;;;;4896923;29;20052;-76
2024/01/24 03:05:29;;;;;;;19.27;2.78;;;10.10;99.90;;;;;;4866128;29;20052;-76
2024/01/24 03:07:57;;;;;;;18.73;3.10;;;10.10;99.90;;;;;;4865835;29;20048;-76
2024/01/24 03:10:26;;;;;;;17.85;2.67;;;10.10;99.90;;;;;;4896626;29;20093;-76
2024/01/24 03:12:53;;;;;;;15.85;2.53;;;10.00;99.90;;;;;;4866063;29;20060;-76
2024/01/24 03:15:19;;;;;;;22.77;2.92;;;10.00;99.90;;;;;;4897212;29;20093;-76
2024/01/24 03:17:45;;;;;;;14.80;3.78;;;10.00;99.90;;;;;;4897053;29;20072;-76
2024/01/24 03:20:13;;;;;;;26.55;3.38;;;9.90;99.90;;;;;;4865578;29;20442;-76
2024/01/24 03:22:38;;;;;;;20.08;3.25;;;9.90;99.90;;;;;;4865670;29;20085;-76
2024/01/24 03:25:04;;;;;;;23.15;4.40;;;9.90;99.90;;;;;;4865698;29;20064;-76
2024/01/24 03:27:30;;;;;;;20.15;3.70;;;9.90;99.90;;;;;;4865857;29;20052;-76
2024/01/24 03:29:55;;;;;;;21.50;4.43;;;9.90;99.90;;;;;;4865557;29;20051;-76
2024/01/24 03:32:21;;;;;;;18.88;2.67;;;9.90;99.90;;;;;;4865701;29;20053;-76
2024/01/24 03:34:57;;;;;;;20.60;3.70;;;9.90;99.90;;;;;;4865767;29;20048;-76
2024/01/24 03:37:23;;;;;;;21.88;4.13;;;9.90;99.90;;;;;;4865710;29;20138;-76
2024/01/24 03:39:49;;;;;;;24.52;4.65;;;9.90;99.90;;;;;;4865392;29;20160;-75
2024/01/24 03:42:14;;;;;;;18.40;3.15;;;9.80;99.90;;;;;;4865651;29;20045;-76
2024/01/24 03:44:40;;;;;;;21.00;4.57;;;9.90;99.90;;;;;;4865649;29;20057;-76
2024/01/24 03:47:06;;;;;;;24.30;3.60;;;9.80;99.90;;;;;;4896314;29;20045;-76
2024/01/24 03:49:32;;;;;;;17.65;4.82;;;9.80;99.90;;;;;;4896220;29;20140;-76
2024/01/24 03:51:57;;;;;;;22.65;3.42;;;9.90;99.90;;;;;;4865220;29;20132;-75
2024/01/24 03:54:23;;;;;;;27.25;4.18;;;9.90;99.90;;;;;;4896469;29;20057;-75
2024/01/24 03:56:49;;;;;;;20.63;4.15;;;9.80;99.90;;;;;;4865204;29;20060;-75
2024/01/24 03:59:15;;;;;;;24.98;4.10;;;9.80;99.90;;;;;;4896133;29;20097;-75
2024/01/24 04:01:41;;;;;;;23.88;4.28;;;9.80;99.90;;;;;;4895844;29;20056;-75
2024/01/24 04:04:07;;;;;;;23.25;4.95;;;9.80;99.90;;;;;;4864932;29;20045;-75
2024/01/24 04:06:33;;;;;;;29.95;4.20;;;9.80;99.90;;;;;;4864896;29;20056;-75
2024/01/24 04:08:59;;;;;;;23.02;4.60;;;9.80;99.90;;;;;;4896192;29;20453;-75
2024/01/24 04:11:24;;;;;;;17.08;3.75;;;9.80;99.90;;;;;;4881443;29;20057;-76
2024/01/24 04:13:53;;;;;;;25.13;4.40;;;9.80;99.90;;;;;;4864860;29;20163;-76
2024/01/24 04:16:18;;;;;;;27.25;4.53;;;9.80;99.90;;;;;;4896067;29;20049;-76
2024/01/24 04:18:44;;;;;;;25.92;4.30;;;9.80;99.90;;;;;;4864540;29;20060;-76
2024/01/24 04:21:10;;;;;;;26.30;4.63;;;9.80;99.90;;;;;;4864441;29;20049;-75
2024/01/24 04:23:35;;;;;;;24.77;4.03;;;9.80;99.90;;;;;;4864684;29;20049;-75
2024/01/24 04:26:07;;;;;;;23.33;4.18;;;9.80;99.90;;;;;;4864923;29;20048;-75
2024/01/24 04:28:33;;;;;;;26.95;4.45;;;9.70;99.90;;;;;;4864105;29;20084;-76
2024/01/24 04:30:58;;;;;;;24.27;5.60;;;9.70;99.90;;;;;;4864689;29;20098;-76
2024/01/24 04:33:24;;;;;;;26.73;3.65;;;9.70;99.90;;;;;;4881265;29;20041;-75
2024/01/24 04:35:50;;;;;;;26.67;4.85;;;9.60;99.90;;;;;;4895479;29;20060;-76
2024/01/24 04:38:16;;;;;;;31.75;4.68;;;9.60;99.90;;;;;;4881136;29;20044;-75
2024/01/24 04:40:42;;;;;;;35.40;6.70;;;9.60;99.90;;;;;;4864320;29;20378;-76
2024/01/24 04:43:08;;;;;;;34.15;4.82;;;9.60;99.90;;;;;;4895348;29;20048;-76
2024/01/24 04:45:34;;;;;;;26.85;5.53;;;9.50;99.90;;;;;;4864416;29;20052;-75
2024/01/24 04:47:59;;;;;;;25.10;5.03;;;9.40;99.90;;;;;;4895226;29;20063;-76
2024/01/24 04:50:25;;;;;;;34.53;7.25;;;9.40;99.90;;;;;;4864124;29;20072;-76
2024/01/24 04:52:51;;;;;;;38.58;5.88;;;9.30;99.90;;;;;;4895192;29;20049;-75
2024/01/24 04:55:17;;;;;;;35.65;5.55;;;9.30;99.90;;;;;;4895107;29;20041;-75
2024/01/24 04:57:42;;;;;;;30.40;6.60;;;9.20;99.90;;;;;;4880855;29;20077;-75
2024/01/24 05:00:09;;;;;;;32.22;6.10;;;9.20;99.90;;;;;;4863723;29;20440;-75
2024/01/24 05:02:36;;;;;;;32.90;7.30;;;9.20;99.90;;;;;;4863861;29;20136;-75
2024/01/24 05:05:02;;;;;;;38.03;6.63;;;9.20;99.90;;;;;;4864155;29;20128;-75
2024/01/24 05:07:28;;;;;;;34.08;7.45;;;9.20;99.90;;;;;;4864123;29;20120;-75
2024/01/24 05:09:53;;;;;;;41.97;5.80;;;9.10;99.90;;;;;;4863601;29;20447;-75
2024/01/24 05:12:21;;;;;;;45.33;7.63;;;9.10;99.90;;;;;;4863615;29;20144;-75
2024/01/24 05:14:47;;;;;;;30.70;6.63;;;9.10;99.90;;;;;;4863161;29;20112;-76
2024/01/24 05:17:13;;;;;;;42.97;7.32;;;9.10;99.90;;;;;;4863951;29;20049;-75
2024/01/24 05:19:38;;;;;;;41.72;8.10;;;9.00;99.90;;;;;;4863565;29;20045;-75
2024/01/24 05:22:04;;;;;;;43.80;7.78;;;9.00;99.90;;;;;;4863925;29;20140;-75
2024/01/24 05:24:30;;;;;;;42.63;7.35;;;9.00;99.90;;;;;;4863899;29;20481;-75
2024/01/24 05:26:57;;;;;;;42.17;7.22;;;8.90;99.90;;;;;;4863935;29;20049;-75
2024/01/24 05:29:22;;;;;;;40.40;6.63;;;8.90;99.90;;;;;;4863683;29;20093;-75
2024/01/24 05:31:48;;;;;;;42.65;7.65;;;8.90;99.90;;;;;;4863459;29;20041;-75
2024/01/24 05:34:13;;;;;;;33.38;6.82;;;8.90;99.90;;;;;;4863511;29;20053;-75
2024/01/24 05:36:39;;;;;;;36.10;7.97;;;8.90;99.90;;;;;;4863495;29;20049;-75
2024/01/24 05:39:06;;;;;;;37.33;7.47;;;8.90;99.90;;;;;;4880017;29;20080;-75
2024/01/24 05:41:33;;;;;;;35.28;6.43;;;8.90;99.90;;;;;;4863467;29;20442;-75
2024/01/24 05:43:59;;;;;;;37.47;6.78;;;8.80;99.90;;;;;;4863345;29;20148;-75
2024/01/24 05:46:24;;;;;;;41.25;8.60;;;8.80;99.90;;;;;;4863396;29;20048;-75
2024/01/24 05:48:50;;;;;;;38.78;8.73;;;8.80;99.90;;;;;;4863672;29;20037;-75
2024/01/24 05:51:18;;;;;;;39.90;7.22;;;8.80;99.90;;;;;;4863283;29;20053;-75
2024/01/24 05:53:44;;;;;;;37.58;6.75;;;8.80;99.90;;;;;;4863295;29;20173;-75
2024/01/24 05:56:10;;;;;;;41.88;7.93;;;8.80;99.90;;;;;;4863139;29;20052;-75
2024/01/24 05:58:37;;;;;;;40.92;6.18;;;8.70;99.90;;;;;;4863188;29;20135;-76
2024/01/24 06:01:05;;;;;;;33.10;5.82;;;8.70;99.90;;;;;;4894183;29;20106;-75
2024/01/24 06:03:34;;;;;;;40.30;7.47;;;8.70;99.90;;;;;;4894293;29;20045;-76
2024/01/24 06:06:03;;;;;;;67.78;10.30;;;8.70;99.90;;;;;;4863205;29;20224;-75
2024/01/24 06:08:31;;;;;;;34.67;7.50;;;8.70;99.90;;;;;;4863191;29;20572;-75
2024/01/24 06:10:58;;;;;;;46.30;7.75;;;8.70;99.90;;;;;;4862770;29;20065;-75
2024/01/24 06:13:27;;;;;;;36.40;6.30;;;8.70;99.90;;;;;;4894035;29;20125;-75
2024/01/24 06:15:53;;;;;;;39.75;6.38;;;8.70;99.90;;;;;;4862800;29;20053;-75
2024/01/24 06:18:19;;;;;;;46.17;7.88;;;8.60;99.90;;;;;;4863084;29;20045;-75
2024/01/24 06:20:45;;;;;;;44.10;7.25;;;8.60;99.90;;;;;;4863036;29;20133;-75
2024/01/24 06:23:11;;;;;;;45.25;7.03;;;8.60;99.90;;;;;;4862871;29;20105;-75
2024/01/24 06:25:37;;;;;;;39.22;6.18;;;8.60;99.90;;;;;;4864063;29;20052;-75
2024/01/24 06:28:03;;;;;;;36.00;6.78;;;8.60;99.90;;;;;;4866839;29;20585;-75
2024/01/24 06:30:28;;;;;;;36.08;7.10;;;8.60;99.90;;;;;;4883403;29;20037;-75
2024/01/24 06:32:54;;;;;;;41.08;6.70;;;8.60;99.90;;;;;;4866870;29;20378;-75
2024/01/24 06:35:20;;;;;;;35.05;6.43;;;8.60;99.90;;;;;;4866448;29;20100;-75
2024/01/24 06:37:48;;;;;;;36.55;6.95;;;8.50;99.90;;;;;;4866429;29;20088;-75
2024/01/24 06:40:14;;;;;;;35.80;6.13;;;8.50;99.90;;;;;;4866277;29;20109;-75
2024/01/24 06:42:40;;;;;;;37.50;7.40;;;8.50;99.90;;;;;;4866367;29;20143;-75
2024/01/24 06:45:08;;;;;;;45.50;7.63;;;8.50;99.90;;;;;;4866333;29;20049;-75
2024/01/24 06:47:34;;;;;;;43.47;7.18;;;8.50;99.90;;;;;;4866530;29;20057;-75
2024/01/24 06:49:59;;;;;;;37.20;6.95;;;8.40;99.90;;;;;;4866270;29;20417;-75
2024/01/24 06:52:25;;;;;;;42.08;8.98;;;8.40;99.90;;;;;;4866067;29;20049;-75
2024/01/24 06:54:51;;;;;;;41.38;7.72;;;8.50;99.90;;;;;;4866356;29;20060;-75
2024/01/24 06:57:17;;;;;;;41.60;7.03;;;8.50;99.90;;;;;;4866211;29;20053;-75
2024/01/24 06:59:43;;;;;;;38.28;8.10;;;8.50;99.90;;;;;;4882733;29;20058;-75
2024/01/24 07:02:09;;;;;;;38.38;8.93;;;8.50;99.90;;;;;;4882859;29;20037;-75
2024/01/24 07:04:34;;;;;;;39.78;7.03;;;8.50;99.90;;;;;;4882781;29;20041;-75
2024/01/24 07:07:00;;;;;;;37.92;6.60;;;8.50;99.90;;;;;;4865872;29;20500;-75
2024/01/24 07:09:28;;;;;;;37.45;8.73;;;8.50;99.90;;;;;;4865686;29;20140;-75
2024/01/24 07:11:54;;;;;;;37.03;7.60;;;8.50;99.90;;;;;;4865861;29;20060;-75
2024/01/24 07:14:22;;;;;;;45.35;7.88;;;8.50;99.90;;;;;;4866099;29;20049;-75
2024/01/24 07:16:48;;;;;;;29.48;6.30;;;8.40;99.90;;;;;;4866167;29;20520;-75
2024/01/24 07:19:14;;;;;;;32.85;6.78;;;8.40;99.90;;;;;;4865408;29;20121;-75
2024/01/24 07:21:40;;;;;;;38.50;7.47;;;8.40;99.90;;;;;;4882368;29;20053;-75
2024/01/24 07:24:05;;;;;;;38.53;8.02;;;8.30;99.90;;;;;;4865424;29;20135;-75
2024/01/24 07:26:31;;;;;;;39.90;8.40;;;8.30;99.90;;;;;;4864525;29;20064;-75
2024/01/24 07:28:57;;;;;;;37.88;7.18;;;8.30;99.90;;;;;;4850332;29;20125;-75
2024/01/24 07:31:22;;;;;;;38.22;6.82;;;8.20;99.90;;;;;;4865397;29;20496;-76
2024/01/24 07:33:48;;;;;;;32.17;5.47;;;8.30;99.90;;;;;;4865318;29;20060;-75
2024/01/24 07:36:13;;;;;;;39.22;6.57;;;8.30;99.90;;;;;;4864989;29;20051;-75
2024/01/24 07:38:39;;;;;;;28.92;6.13;;;8.30;99.90;;;;;;4865528;29;20060;-76
2024/01/24 07:41:07;;;;;;;30.70;6.38;;;8.30;99.90;;;;;;4865123;29;20060;-76
2024/01/24 07:43:33;;;;;;;33.15;6.90;;;8.30;99.90;;;;;;4882068;29;20094;-76
2024/01/24 07:45:59;;;;;;;45.83;7.97;;;8.20;99.90;;;;;;4865047;29;20049;-75
2024/01/24 07:48:24;;;;;;;32.90;6.95;;;8.20;99.90;;;;;;4865049;29;20054;-75
2024/01/24 07:50:50;;;;;;;34.53;6.45;;;8.20;99.90;;;;;;4865390;29;20089;-75
2024/01/24 07:53:16;;;;;;;40.70;8.15;;;8.20;99.90;;;;;;4864998;29;20405;-75
2024/01/24 07:55:42;;;;;;;38.63;6.82;;;8.20;99.90;;;;;;4865215;29;20060;-75
2024/01/24 07:58:08;;;;;;;39.33;6.40;;;8.20;99.90;;;;;;4864946;29;20139;-75
2024/01/24 08:00:34;;;;;;;35.70;6.97;;;8.20;99.90;;;;;;4864849;29;20136;-77
2024/01/24 08:03:00;;;;;;;41.05;6.75;;;8.20;99.90;;;;;;4862190;29;20052;-75
2024/01/24 08:05:29;;;;;;;43.97;7.25;;;8.20;99.90;;;;;;4848748;29;20097;-75
2024/01/24 08:07:55;;;;;;;37.22;5.93;;;8.20;99.90;;;;;;4852799;29;20053;-75
2024/01/24 08:10:23;;;;;;;49.30;8.15;;;8.30;99.90;;;;;;4845907;29;20490;-74
2024/01/24 08:12:49;;;;;;;43.25;7.93;;;8.30;99.90;;;;;;4845965;29;20409;-76
2024/01/24 08:15:15;;;;;;;40.33;8.10;;;8.30;99.90;;;;;;4845986;29;20568;-74
2024/01/24 08:17:40;;;;;;;36.60;6.28;;;8.30;99.90;;;;;;4845980;29;20113;-74
2024/01/24 08:20:09;;;;;;;37.85;6.97;;;8.30;99.90;;;;;;4845922;29;20076;-74
2024/01/24 08:22:36;;;;;;;34.40;7.05;;;8.30;99.90;;;;;;4845795;29;20078;-74
2024/01/24 08:25:02;;;;;;;42.70;8.35;;;8.30;99.90;;;;;;4845911;29;20057;-74
2024/01/24 08:27:28;;;;;;;41.53;7.57;;;8.30;99.90;;;;;;4845746;29;20516;-74
2024/01/24 08:29:53;;;;;;;36.83;6.00;;;8.20;99.90;;;;;;4845674;29;20049;-74
2024/01/24 08:32:19;;;;;;;36.47;6.88;;;8.30;99.90;;;;;;4845897;29;20137;-75
2024/01/24 08:34:45;;;;;;;45.30;7.03;;;8.30;99.90;;;;;;4845626;29;20463;-75
2024/01/24 08:37:12;;;;;;;41.83;9.70;;;8.30;99.90;;;;;;4857006;29;20048;-75
2024/01/24 08:39:39;;;;;;;30.95;5.15;;;8.30;99.90;;;;;;4876981;29;20056;-75
2024/01/24 08:42:05;;;;;;;41.70;7.82;;;8.30;99.90;;;;;;4871568;29;21092;-75
2024/01/24 08:44:31;;;;;;;42.28;7.60;;;8.30;99.90;;;;;;4864244;29;20049;-75
2024/01/24 08:46:56;;;;;;;44.50;9.18;;;8.40;99.90;;;;;;4880864;29;20128;-75
2024/01/24 08:49:22;;;;;;;40.83;6.35;;;8.40;99.90;;;;;;4863056;29;20045;-75
2024/01/24 08:51:48;;;;;;;35.22;5.93;;;8.30;99.90;;;;;;4895040;29;20045;-75
2024/01/24 08:54:14;;;;;;;52.05;8.05;;;8.30;99.90;;;;;;4863609;29;20405;-75
2024/01/24 08:56:39;;;;;;;47.53;6.95;;;8.30;99.90;;;;;;4863743;29;20087;-75
2024/01/24 08:59:06;;;;;;;39.15;7.43;;;8.40;99.90;;;;;;4863545;29;20057;-75
2024/01/24 09:01:31;;;;;;;37.47;6.65;;;8.40;99.90;;;;;;4863709;29;20140;-75
2024/01/24 09:04:00;;;;;;;44.60;7.78;;;8.40;99.90;;;;;;4863626;29;20045;-75
2024/01/24 09:06:25;;;;;;;36.22;7.63;;;8.50;99.90;;;;;;4868573;29;20099;-75
2024/01/24 09:08:52;;;;;;;50.30;7.63;;;8.50;99.90;;;;;;4895568;29;20406;-75
2024/01/24 09:11:22;;;;;;;31.42;5.43;;;8.50;99.90;;;;;;4875952;29;20497;-75
2024/01/24 09:13:48;;;;;;;44.47;7.30;;;8.60;99.90;;;;;;4881714;29;20095;-75
2024/01/24 09:16:15;;;;;;;36.83;7.40;;;8.60;99.90;;;;;;4882229;29;20484;-76
2024/01/24 09:18:44;;;;;;;49.58;6.70;;;8.60;99.90;;;;;;4882132;29;20514;-75
2024/01/24 09:21:10;;;;;;;41.67;7.25;;;8.60;99.90;;;;;;4881877;29;20056;-75
2024/01/24 09:23:35;;;;;;;36.42;6.93;;;8.60;99.90;;;;;;4882011;29;20067;-75
2024/01/24 09:26:04;;;;;;;36.05;6.93;;;8.60;99.90;;;;;;4881885;29;20084;-75
2024/01/24 09:28:32;;;;;;;37.40;7.13;;;8.70;99.90;;;;;;4881750;29;20041;-75
2024/01/24 09:30:57;;;;;;;38.40;7.97;;;8.70;99.90;;;;;;4881764;29;20044;-75
2024/01/24 09:33:23;;;;;;;35.97;7.00;;;8.70;99.90;;;;;;4881929;29;20064;-75
2024/01/24 09:35:49;;;;;;;41.55;7.43;;;8.80;99.90;;;;;;4870177;29;20053;-76
2024/01/24 09:38:15;;;;;;;30.08;6.63;;;8.70;99.90;;;;;;4894241;29;20060;-76
2024/01/24 09:40:42;;;;;;;44.03;8.52;;;8.80;99.90;;;;;;4862914;29;20524;-76
2024/01/24 09:43:12;;;;;;;38.97;6.88;;;8.80;99.90;;;;;;4894193;29;20080;-76
2024/01/24 09:45:42;;;;;;;35.47;7.55;;;8.90;99.90;;;;;;4897063;29;20056;-76
2024/01/24 09:48:10;;;;;;;37.25;7.28;;;8.90;99.90;;;;;;4881556;29;20072;-75
2024/01/24 09:50:36;;;;;;;35.38;7.20;;;8.90;99.90;;;;;;4881719;29;20067;-75
2024/01/24 09:53:07;;;;;;;31.27;7.00;;;9.00;99.90;;;;;;4881543;29;20485;-76
2024/01/24 09:55:33;;;;;;;25.42;5.95;;;9.00;99.90;;;;;;4881362;29;20056;-76
2024/01/24 09:57:59;;;;;;;38.95;7.70;;;9.00;99.90;;;;;;4881947;29;20067;-75
2024/01/24 10:00:25;;;;;;;34.17;6.53;;;9.10;99.90;;;;;;4897943;29;20048;-75
2024/01/24 10:02:51;;;;;;;29.63;6.88;;;9.10;99.90;;;;;;4881399;29;20048;-74
2024/01/24 10:05:18;;;;;;;34.22;7.10;;;9.10;99.90;;;;;;4881263;29;20077;-75
2024/01/24 10:07:45;;;;;;;33.35;6.70;;;9.10;99.90;;;;;;4881581;29;20052;-75
2024/01/24 10:10:12;;;;;;;33.75;7.20;;;9.10;99.90;;;;;;4881130;29;20064;-79
2024/01/24 10:12:43;;;;;;;30.90;6.53;;;9.20;99.90;;;;;;4881111;29;20060;-74
2024/01/24 10:15:12;;;;;;;32.80;6.70;;;9.20;99.90;;;;;;4881530;29;20580;-74
2024/01/24 10:17:42;;;;;;;39.47;7.50;;;9.30;99.90;;;;;;4881311;29;20060;-74
2024/01/24 10:20:11;;;;;;;49.60;7.18;;;9.30;99.90;;;;;;4881179;29;20088;-74
2024/01/24 10:22:42;;;;;;;36.60;7.40;;;9.20;99.90;;;;;;4881470;29;20510;-74
2024/01/24 10:25:10;;;;;;;36.90;7.55;;;9.30;99.90;;;;;;4881415;29;20049;-75
2024/01/24 10:27:38;;;;;;;40.28;8.05;;;9.30;99.90;;;;;;4881179;29;20059;-74
2024/01/24 10:30:10;;;;;;;41.13;6.90;;;9.30;99.90;;;;;;4898129;29;20041;-74
2024/01/24 10:32:37;;;;;;;34.00;7.20;;;9.30;99.90;;;;;;4898043;29;20051;-74
2024/01/24 10:35:06;;;;;;;38.22;7.10;;;9.40;99.90;;;;;;4898070;29;20133;-74
2024/01/24 10:37:32;;;;;;;35.75;6.25;;;9.40;99.90;;;;;;4881353;29;20053;-75
2024/01/24 10:40:06;;;;;;;27.45;5.45;;;9.40;99.90;;;;;;4880979;29;20052;-74
2024/01/24 10:42:39;;;;;;;40.92;7.45;;;9.50;99.90;;;;;;4880997;29;20490;-75
2024/01/24 10:45:07;;;;;;;;;;;9.50;99.90;;;;;;4881662;29;20119;-74
2024/01/24 10:47:34;;;;;;;30.58;6.60;;;9.50;99.90;;;;;;4897600;29;20322;-73
2024/01/24 10:50:05;;;;;;;36.20;5.75;;;9.50;99.90;;;;;;4881045;29;20044;-74
2024/01/24 10:52:33;;;;;;;32.65;5.25;;;9.50;99.90;;;;;;4897745;29;20084;-74
2024/01/24 10:55:04;;;;;;;34.40;6.82;;;9.60;99.90;;;;;;4897844;29;20060;-74
2024/01/24 10:57:41;;;;;;;34.10;7.78;;;9.60;99.90;;;;;;4880927;29;20044;-73
2024/01/24 11:00:10;;;;;;;40.28;6.63;;;9.50;99.90;;;;;;4880989;29;20091;-72
2024/01/24 11:02:41;;;;;;;33.97;6.30;;;9.50;99.90;;;;;;4897674;29;20044;-74
2024/01/24 11:05:10;;;;;;;27.63;5.22;;;9.60;99.90;;;;;;4880897;29;20052;-74
2024/01/24 11:07:43;;;;;;;37.70;7.95;;;9.60;99.90;;;;;;4880579;29;20393;-72
2024/01/24 11:10:22;;;;;;;37.53;7.40;;;9.60;99.90;;;;;;4880419;29;20143;-72
2024/01/24 11:12:48;;;;;;;38.42;6.97;;;9.60;99.90;;;;;;4883244;29;20401;-72
2024/01/24 11:15:14;;;;;;;37.22;6.97;;;9.60;99.90;;;;;;4884247;29;20052;-73
2024/01/24 11:17:42;;;;;;;41.95;7.82;;;9.60;99.90;;;;;;4901155;29;20044;-73
2024/01/24 11:20:11;;;;;;;31.42;6.72;;;9.60;99.90;;;;;;4883944;29;20053;-73
2024/01/24 11:22:37;;;;;;;24.27;5.30;;;9.60;99.90;;;;;;4884006;29;20077;-73
2024/01/24 11:25:04;;;;;;;44.53;7.57;;;9.60;99.90;;;;;;4883895;29;20048;-74
2024/01/24 11:27:34;;;;;;;44.70;7.45;;;9.50;99.90;;;;;;4884110;29;20053;-74
2024/01/24 11:30:23;;;;;;;38.03;7.30;;;9.60;99.90;;;;;;4883892;29;20055;-75
2024/01/24 11:32:51;;;;;;;33.15;7.80;;;9.60;99.90;;;;;;4888754;29;20060;-74
2024/01/24 11:35:32;;;;;;;31.52;6.40;;;9.70;99.90;;;;;;4883599;29;20108;-75
2024/01/24 11:38:16;;;;;;;27.40;5.93;;;9.60;99.90;;;;;;4900657;29;20076;-74
2024/01/24 11:40:46;;;;;;;29.58;7.07;;;9.60;99.90;;;;;;4883716;29;20052;-80
2024/01/24 11:43:25;;;;;;;38.47;9.45;;;9.60;99.90;;;;;;4883864;29;20041;-75
2024/01/24 11:45:55;;;;;;;32.25;6.05;;;9.70;99.90;;;;;;4883750;29;20048;-75
2024/01/24 11:48:22;;;;;;;35.63;7.00;;;9.70;99.90;;;;;;4883587;29;20052;-76
2024/01/24 11:50:59;;;;;;;39.80;6.30;;;9.60;99.90;;;;;;4883686;29;20489;-75
2024/01/24 11:53:25;;;;;;;33.42;5.90;;;9.60;99.90;;;;;;4900544;29;20033;-75
2024/01/24 11:55:58;;;;;;;37.08;6.45;;;9.70;99.90;;;;;;4883371;29;20052;-75
2024/01/24 11:58:28;;;;;;;31.98;6.03;;;9.60;99.90;;;;;;4883228;29;20044;-75
2024/01/24 12:00:55;;;;;;;30.02;5.85;;;9.60;99.90;;;;;;4883143;29;20053;-75
2024/01/24 12:03:21;;;;;;;32.33;6.00;;;9.60;99.90;;;;;;4883418;29;20044;-75
2024/01/24 12:05:48;;;;;;;40.40;6.38;;;9.60;99.90;;;;;;4883582;29;20052;-75
2024/01/24 12:08:14;;;;;;;36.28;6.93;;;9.60;99.90;;;;;;4883148;29;20546;-75
2024/01/24 12:10:40;;;;;;;35.17;5.93;;;9.50;99.90;;;;;;4882845;29;20060;-75
2024/01/24 12:13:07;;;;;;;34.22;7.10;;;9.50;99.90;;;;;;4882846;29;20052;-76
2024/01/24 12:15:36;;;;;;;41.35;6.97;;;9.60;99.90;;;;;;4882989;29;20041;-75
2024/01/24 12:18:07;;;;;;;34.97;6.35;;;9.70;99.90;;;;;;4883042;29;20059;-75
2024/01/24 12:20:33;;;;;;;43.38;8.27;;;9.70;99.90;;;;;;4882782;29;20063;-75
2024/01/24 12:22:59;;;;;;;36.78;7.75;;;9.60;99.90;;;;;;4882803;29;20051;-75
2024/01/24 12:25:27;;;;;;;34.00;5.90;;;9.60;99.90;;;;;;4882548;29;20049;-75
2024/01/24 12:27:53;;;;;;;40.85;8.02;;;9.60;99.90;;;;;;4882794;29;20084;-74
2024/01/24 12:30:20;;;;;;;25.77;5.50;;;9.60;99.90;;;;;;4882734;29;20084;-75
2024/01/24 12:32:46;;;;;;;35.75;6.43;;;9.60;99.90;;;;;;4899816;29;20036;-74
2024/01/24 12:35:14;;;;;;;40.83;7.60;;;9.60;99.90;;;;;;4899232;29;20124;-75
2024/01/24 12:37:44;;;;;;;40.40;7.82;;;9.60;99.90;;;;;;4882691;29;20040;-75
2024/01/24 12:40:12;;;;;;;44.53;7.53;;;9.60;99.90;;;;;;4882448;29;20048;-76
2024/01/24 12:42:40;;;;;;;38.55;6.90;;;9.60;99.90;;;;;;4882768;29;20121;-76